Date,TemperatureHighF,TemperatureAvgF,TemperatureLowF,DewpointHighF,DewpointAvgF,DewpointLowF,HumidityHigh,HumidityAvg,HumidityLow,PressureMaxIn,PressureMinIn,WindSpeedMaxMPH,WindSpeedAvgMPH,GustSpeedMaxMPH,PrecipitationSumIn
2013-2-1,60.3,52.6,32.0,49.4,46.3,32.0,88,78,58,30.08,29.45,10,2,23,0.00
2013-2-2,59.2,53.3,47.2,47.8,42.1,28.6,77,66,47,29.45,29.12,25,4,25,0.01
2013-2-3,58.6,50.6,45.6,31.5,22.2,-0.7,57,35,9,30.08,29.39,15,3,15,0.00
2013-2-4,52.7,48.6,44.6,41.2,31.5,14.0,76,54,27,30.08,29.98,15,2,15,0.00
2013-2-5,56.6,51.4,47.3,45.2,40.9,32.4,79,68,45,30.05,29.61,27,2,27,0.00
2013-2-6,54.7,49.9,32.0,32.4,21.0,9.8,49,32,19,29.61,29.35,27,6,27,0.00
2013-2-7,53.9,48.3,44.3,27.1,15.7,5.4,49,28,16,29.75,29.43,18,3,18,0.00
2013-2-8,48.6,43.7,32.0,32.0,13.1,3.8,49,29,17,29.83,29.74,22,4,22,0.00
2013-2-9,48.4,42.4,32.0,32.0,25.3,3.5,68,51,21,29.91,29.85,12,2,12,0.00
2013-2-10,46.5,41.0,36.2,35.2,30.5,24.8,86,67,47,29.95,29.77,10,2,10,0.04
2013-2-11,41.5,39.2,36.0,36.5,34.2,28.5,89,82,66,29.77,29.42,19,3,19,2.02
2013-2-12,49.3,41.4,36.0,36.8,33.8,28.8,86,75,51,29.76,29.48,9,2,9,0.00
2013-2-13,55.3,46.8,39.2,38.7,35.1,29.9,77,64,44,29.91,29.75,12,3,12,0.00
2013-2-14,53.2,48.7,32.0,39.1,31.3,17.1,71,52,27,30.04,30.00,14,3,14,0.00
2013-2-16,53.4,48.0,46.2,39.8,36.5,32.1,73,64,56,30.10,30.07,6,2,6,0.00
2013-2-17,52.3,47.4,43.3,41.1,36.8,30.8,80,67,56,30.08,30.00,8,2,8,0.00
2013-2-18,47.4,46.5,43.8,33.4,32.4,32.0,63,58,56,30.05,30.03,8,2,8,0.00
2013-2-19,51.7,47.5,42.6,42.8,34.0,28.3,76,60,48,30.06,29.87,18,4,18,0.00
2013-2-20,50.0,49.2,32.0,39.8,39.1,32.0,71,65,65,29.84,29.82,9,1,9,0.00
2013-2-21,52.9,46.6,32.0,42.8,39.5,32.0,90,76,61,29.82,29.66,14,2,14,1.36
2013-2-22,48.2,42.4,38.5,38.8,34.1,27.4,91,74,46,29.67,29.49,13,2,13,0.06
2013-2-23,44.3,40.8,37.6,36.3,33.0,26.8,89,74,57,29.55,29.38,16,3,16,0.15
2013-2-24,44.7,39.1,35.4,36.9,33.9,26.6,91,82,58,29.77,29.48,12,2,12,1.18
2013-2-25,49.6,42.3,35.2,36.2,31.8,23.7,90,68,45,30.01,29.76,16,3,16,0.00
2013-2-26,53.1,46.9,41.8,34.8,30.4,24.0,64,53,40,30.15,30.01,15,2,15,0.00
2013-2-27,54.1,48.2,42.6,40.2,32.2,20.9,75,55,31,30.21,30.14,15,3,15,0.00
2013-2-28,48.1,46.0,43.1,39.7,37.6,35.8,76,72,67,30.22,30.20,8,2,8,0.00